Terminal Aerodrome Forecast
Issued by NWS

Home | Current Version | Previous Version | Text Only | Print | Product List | Glossary On
Versions: 1 2 3 4 5 6 7 8 9 10 11 12
137
FTAK31 PAJN 291727
TAFAKT
TAF
PAKT 291727Z 2918/3018 32010KT P6SM SKC
     FM292000 33012G18KT P6SM SKC
     FM300300 32007KT P6SM SKC
      AMD LTD TO CLD VIS AND WIND 3006/3015=

USA.gov is the U.S. government's official web portal to all federal, state and local government web resources and services.